sensor_id;sensor_type;location;lat;lon;timestamp;temperature;humidity
1447;DHT22;717;51.522;7.266;2023-12-14T00:02:23;13.30;99.90
1447;DHT22;717;51.522;7.266;2023-12-14T00:04:53;13.30;99.90
1447;DHT22;717;51.522;7.266;2023-12-14T00:07:23;13.30;99.90
1447;DHT22;717;51.522;7.266;2023-12-14T00:09:53;13.30;99.90
1447;DHT22;717;51.522;7.266;2023-12-14T00:12:23;13.30;99.90
1447;DHT22;717;51.522;7.266;2023-12-14T00:14:52;13.20;99.90
1447;DHT22;717;51.522;7.266;2023-12-14T00:17:25;13.20;99.90
1447;DHT22;717;51.522;7.266;2023-12-14T00:19:55;13.20;99.90
1447;DHT22;717;51.522;7.266;2023-12-14T00:22:25;13.10;99.90
1447;DHT22;717;51.522;7.266;2023-12-14T00:24:55;13.10;99.90
1447;DHT22;717;51.522;7.266;2023-12-14T00:27:25;13.00;99.90
1447;DHT22;717;51.522;7.266;2023-12-14T00:29:54;13.00;99.90
1447;DHT22;717;51.522;7.266;2023-12-14T00:32:27;13.00;99.90
1447;DHT22;717;51.522;7.266;2023-12-14T00:34:57;13.00;99.90
1447;DHT22;717;51.522;7.266;2023-12-14T00:37:27;13.00;99.90
1447;DHT22;717;51.522;7.266;2023-12-14T00:39:57;13.00;99.90
1447;DHT22;717;51.522;7.266;2023-12-14T00:42:27;13.00;99.90
1447;DHT22;717;51.522;7.266;2023-12-14T00:44:58;13.00;99.90
1447;DHT22;717;51.522;7.266;2023-12-14T00:47:30;13.00;99.90
1447;DHT22;717;51.522;7.266;2023-12-14T00:49:58;13.00;99.90
1447;DHT22;717;51.522;7.266;2023-12-14T00:52:28;12.90;99.90
1447;DHT22;717;51.522;7.266;2023-12-14T00:54:58;13.00;99.90
1447;DHT22;717;51.522;7.266;2023-12-14T00:57:28;12.90;99.90
1447;DHT22;717;51.522;7.266;2023-12-14T00:59:58;12.90;99.90
1447;DHT22;717;51.522;7.266;2023-12-14T01:02:30;12.80;99.90
1447;DHT22;717;51.522;7.266;2023-12-14T01:05:01;12.80;99.90
1447;DHT22;717;51.522;7.266;2023-12-14T01:07:31;12.80;99.90
1447;DHT22;717;51.522;7.266;2023-12-14T01:10:01;12.80;99.90
1447;DHT22;717;51.522;7.266;2023-12-14T01:12:31;12.80;99.90
1447;DHT22;717;51.522;7.266;2023-12-14T01:15:02;12.80;99.90
1447;DHT22;717;51.522;7.266;2023-12-14T01:17:35;12.80;99.90
1447;DHT22;717;51.522;7.266;2023-12-14T01:20:06;12.80;99.90
1447;DHT22;717;51.522;7.266;2023-12-14T01:22:37;12.80;99.90
1447;DHT22;717;51.522;7.266;2023-12-14T01:25:07;12.80;99.90
1447;DHT22;717;51.522;7.266;2023-12-14T01:27:37;12.70;99.90
1447;DHT22;717;51.522;7.266;2023-12-14T01:30:08;12.70;99.90
1447;DHT22;717;51.522;7.266;2023-12-14T01:32:41;12.60;99.90
1447;DHT22;717;51.522;7.266;2023-12-14T01:35:11;12.60;99.90
1447;DHT22;717;51.522;7.266;2023-12-14T01:37:41;12.50;99.90
1447;DHT22;717;51.522;7.266;2023-12-14T01:40:12;12.50;99.90
1447;DHT22;717;51.522;7.266;2023-12-14T01:42:42;12.50;99.90
1447;DHT22;717;51.522;7.266;2023-12-14T01:45:12;12.50;99.90
1447;DHT22;717;51.522;7.266;2023-12-14T01:47:46;12.50;99.90
1447;DHT22;717;51.522;7.266;2023-12-14T01:50:16;12.50;99.90
1447;DHT22;717;51.522;7.266;2023-12-14T01:52:46;12.50;99.90
1447;DHT22;717;51.522;7.266;2023-12-14T01:55:16;12.50;99.90
1447;DHT22;717;51.522;7.266;2023-12-14T01:57:46;12.50;99.90
1447;DHT22;717;51.522;7.266;2023-12-14T02:00:23;12.60;99.90
1447;DHT22;717;51.522;7.266;2023-12-14T02:02:57;12.50;99.90
1447;DHT22;717;51.522;7.266;2023-12-14T02:05:27;12.50;99.90
1447;DHT22;717;51.522;7.266;2023-12-14T02:07:57;12.60;99.90
1447;DHT22;717;51.522;7.266;2023-12-14T02:10:27;12.50;99.90
1447;DHT22;717;51.522;7.266;2023-12-14T02:12:57;12.50;99.90
1447;DHT22;717;51.522;7.266;2023-12-14T02:15:27;12.40;99.90
1447;DHT22;717;51.522;7.266;2023-12-14T02:18:00;12.40;99.90
1447;DHT22;717;51.522;7.266;2023-12-14T02:20:30;12.30;99.90
1447;DHT22;717;51.522;7.266;2023-12-14T02:23:02;12.30;99.90
1447;DHT22;717;51.522;7.266;2023-12-14T02:25:33;12.20;99.90
1447;DHT22;717;51.522;7.266;2023-12-14T02:28:03;12.20;99.90
1447;DHT22;717;51.522;7.266;2023-12-14T02:30:33;12.20;99.90
1447;DHT22;717;51.522;7.266;2023-12-14T02:33:03;12.20;99.90
1447;DHT22;717;51.522;7.266;2023-12-14T02:35:32;12.20;99.90
1447;DHT22;717;51.522;7.266;2023-12-14T02:38:05;12.20;99.90
1447;DHT22;717;51.522;7.266;2023-12-14T02:40:35;12.20;99.90
1447;DHT22;717;51.522;7.266;2023-12-14T02:43:05;12.10;99.90
1447;DHT22;717;51.522;7.266;2023-12-14T02:45:35;12.10;99.90
1447;DHT22;717;51.522;7.266;2023-12-14T02:48:05;12.10;99.90
1447;DHT22;717;51.522;7.266;2023-12-14T02:50:35;12.20;99.90
1447;DHT22;717;51.522;7.266;2023-12-14T02:53:07;12.10;99.90
1447;DHT22;717;51.522;7.266;2023-12-14T02:55:37;12.20;99.90
1447;DHT22;717;51.522;7.266;2023-12-14T02:58:07;12.10;99.90
1447;DHT22;717;51.522;7.266;2023-12-14T03:00:37;12.10;99.90
1447;DHT22;717;51.522;7.266;2023-12-14T03:03:07;12.10;99.90
1447;DHT22;717;51.522;7.266;2023-12-14T03:05:37;12.20;99.90
1447;DHT22;717;51.522;7.266;2023-12-14T03:08:10;12.20;99.90
1447;DHT22;717;51.522;7.266;2023-12-14T03:10:40;12.20;99.90
1447;DHT22;717;51.522;7.266;2023-12-14T03:13:10;12.20;99.90
1447;DHT22;717;51.522;7.266;2023-12-14T03:15:42;12.20;99.90
1447;DHT22;717;51.522;7.266;2023-12-14T03:18:13;12.20;99.90
1447;DHT22;717;51.522;7.266;2023-12-14T03:20:43;12.20;99.90
1447;DHT22;717;51.522;7.266;2023-12-14T03:23:15;12.30;99.90
1447;DHT22;717;51.522;7.266;2023-12-14T03:25:45;12.30;99.90
1447;DHT22;717;51.522;7.266;2023-12-14T03:28:15;12.20;99.90
1447;DHT22;717;51.522;7.266;2023-12-14T03:30:45;12.30;99.90
1447;DHT22;717;51.522;7.266;2023-12-14T03:33:15;12.30;99.90
1447;DHT22;717;51.522;7.266;2023-12-14T03:35:45;12.30;99.90
1447;DHT22;717;51.522;7.266;2023-12-14T03:38:18;12.30;99.90
1447;DHT22;717;51.522;7.266;2023-12-14T03:40:48;12.20;99.90
1447;DHT22;717;51.522;7.266;2023-12-14T03:43:19;12.30;99.90
1447;DHT22;717;51.522;7.266;2023-12-14T03:45:49;12.30;99.90
1447;DHT22;717;51.522;7.266;2023-12-14T03:48:19;12.30;99.90
1447;DHT22;717;51.522;7.266;2023-12-14T03:50:49;12.30;99.90
1447;DHT22;717;51.522;7.266;2023-12-14T03:53:21;12.30;99.90
1447;DHT22;717;51.522;7.266;2023-12-14T03:55:51;12.30;99.90
1447;DHT22;717;51.522;7.266;2023-12-14T03:58:21;12.30;99.90
1447;DHT22;717;51.522;7.266;2023-12-14T04:00:51;12.30;99.90
1447;DHT22;717;51.522;7.266;2023-12-14T04:03:21;12.30;99.90
1447;DHT22;717;51.522;7.266;2023-12-14T04:05:51;12.30;99.90
1447;DHT22;717;51.522;7.266;2023-12-14T04:08:24;12.30;99.90
1447;DHT22;717;51.522;7.266;2023-12-14T04:10:54;12.20;99.90
1447;DHT22;717;51.522;7.266;2023-12-14T04:13:24;12.20;99.90
1447;DHT22;717;51.522;7.266;2023-12-14T04:15:54;12.20;99.90
1447;DHT22;717;51.522;7.266;2023-12-14T04:18:24;12.20;99.90
1447;DHT22;717;51.522;7.266;2023-12-14T04:20:55;12.20;99.90
1447;DHT22;717;51.522;7.266;2023-12-14T04:23:28;12.20;99.90
1447;DHT22;717;51.522;7.266;2023-12-14T04:25:57;12.10;99.90
1447;DHT22;717;51.522;7.266;2023-12-14T04:28:27;12.10;99.90
1447;DHT22;717;51.522;7.266;2023-12-14T04:30:57;12.20;99.90
1447;DHT22;717;51.522;7.266;2023-12-14T04:33:27;12.20;99.90
1447;DHT22;717;51.522;7.266;2023-12-14T04:35:59;12.20;99.90
1447;DHT22;717;51.522;7.266;2023-12-14T04:38:31;12.20;99.90
1447;DHT22;717;51.522;7.266;2023-12-14T04:41:01;12.20;99.90
1447;DHT22;717;51.522;7.266;2023-12-14T04:43:31;12.20;99.90
1447;DHT22;717;51.522;7.266;2023-12-14T04:46:01;12.10;99.90
1447;DHT22;717;51.522;7.266;2023-12-14T04:48:32;12.10;99.90
1447;DHT22;717;51.522;7.266;2023-12-14T04:51:03;12.10;99.90
1447;DHT22;717;51.522;7.266;2023-12-14T04:53:36;12.10;99.90
1447;DHT22;717;51.522;7.266;2023-12-14T04:56:09;12.10;99.90
1447;DHT22;717;51.522;7.266;2023-12-14T04:58:41;12.10;99.90
1447;DHT22;717;51.522;7.266;2023-12-14T05:01:11;12.10;99.90
1447;DHT22;717;51.522;7.266;2023-12-14T05:03:41;12.10;99.90
1447;DHT22;717;51.522;7.266;2023-12-14T05:06:11;12.00;99.90
1447;DHT22;717;51.522;7.266;2023-12-14T05:08:44;12.00;99.90
1447;DHT22;717;51.522;7.266;2023-12-14T05:11:14;12.00;99.90
1447;DHT22;717;51.522;7.266;2023-12-14T05:13:44;11.90;99.90
1447;DHT22;717;51.522;7.266;2023-12-14T05:16:14;11.90;99.90
1447;DHT22;717;51.522;7.266;2023-12-14T05:18:44;11.90;99.90
1447;DHT22;717;51.522;7.266;2023-12-14T05:21:16;11.90;99.90
1447;DHT22;717;51.522;7.266;2023-12-14T05:23:49;11.90;99.90
1447;DHT22;717;51.522;7.266;2023-12-14T05:26:20;11.80;99.90
1447;DHT22;717;51.522;7.266;2023-12-14T05:28:50;11.90;99.90
1447;DHT22;717;51.522;7.266;2023-12-14T05:31:21;11.90;99.90
1447;DHT22;717;51.522;7.266;2023-12-14T05:33:50;11.90;99.90
1447;DHT22;717;51.522;7.266;2023-12-14T05:36:21;11.90;99.90
1447;DHT22;717;51.522;7.266;2023-12-14T05:38:53;11.90;99.90
1447;DHT22;717;51.522;7.266;2023-12-14T05:41:24;11.90;99.90
1447;DHT22;717;51.522;7.266;2023-12-14T05:43:54;11.80;99.90
1447;DHT22;717;51.522;7.266;2023-12-14T05:46:24;11.80;99.90
1447;DHT22;717;51.522;7.266;2023-12-14T05:48:54;11.80;99.90
1447;DHT22;717;51.522;7.266;2023-12-14T05:51:28;11.80;99.90
1447;DHT22;717;51.522;7.266;2023-12-14T05:54:00;11.80;99.90
1447;DHT22;717;51.522;7.266;2023-12-14T05:56:30;11.80;99.90
1447;DHT22;717;51.522;7.266;2023-12-14T05:59:03;11.80;99.90
1447;DHT22;717;51.522;7.266;2023-12-14T06:01:33;11.80;99.90
1447;DHT22;717;51.522;7.266;2023-12-14T06:04:04;11.80;99.90
1447;DHT22;717;51.522;7.266;2023-12-14T06:06:34;11.70;99.90
1447;DHT22;717;51.522;7.266;2023-12-14T06:09:06;11.80;99.90
1447;DHT22;717;51.522;7.266;2023-12-14T06:11:36;11.80;99.90
1447;DHT22;717;51.522;7.266;2023-12-14T06:14:06;11.70;99.90
1447;DHT22;717;51.522;7.266;2023-12-14T06:16:36;11.80;99.90
1447;DHT22;717;51.522;7.266;2023-12-14T06:19:06;11.80;99.90
1447;DHT22;717;51.522;7.266;2023-12-14T06:21:36;11.70;99.90
1447;DHT22;717;51.522;7.266;2023-12-14T06:24:09;11.80;99.90
1447;DHT22;717;51.522;7.266;2023-12-14T06:26:41;11.80;99.90
1447;DHT22;717;51.522;7.266;2023-12-14T06:29:11;11.70;99.90
1447;DHT22;717;51.522;7.266;2023-12-14T06:31:41;11.70;99.90
1447;DHT22;717;51.522;7.266;2023-12-14T06:34:11;11.70;99.90
1447;DHT22;717;51.522;7.266;2023-12-14T06:36:42;11.60;99.90
1447;DHT22;717;51.522;7.266;2023-12-14T06:39:15;11.60;99.90
1447;DHT22;717;51.522;7.266;2023-12-14T06:41:46;11.60;99.90
1447;DHT22;717;51.522;7.266;2023-12-14T06:44:16;11.60;99.90
1447;DHT22;717;51.522;7.266;2023-12-14T06:46:46;11.60;99.90
1447;DHT22;717;51.522;7.266;2023-12-14T06:49:16;11.60;99.90
1447;DHT22;717;51.522;7.266;2023-12-14T06:51:46;11.60;99.90
1447;DHT22;717;51.522;7.266;2023-12-14T06:54:18;11.60;99.90
1447;DHT22;717;51.522;7.266;2023-12-14T06:56:48;11.60;99.90
1447;DHT22;717;51.522;7.266;2023-12-14T06:59:18;11.60;99.90
1447;DHT22;717;51.522;7.266;2023-12-14T07:01:49;11.60;99.90
1447;DHT22;717;51.522;7.266;2023-12-14T07:04:19;11.60;99.90
1447;DHT22;717;51.522;7.266;2023-12-14T07:06:52;11.60;99.90
1447;DHT22;717;51.522;7.266;2023-12-14T07:09:24;11.70;99.90
1447;DHT22;717;51.522;7.266;2023-12-14T07:11:54;11.70;99.90
1447;DHT22;717;51.522;7.266;2023-12-14T07:14:24;11.70;99.90
1447;DHT22;717;51.522;7.266;2023-12-14T07:16:54;11.70;99.90
1447;DHT22;717;51.522;7.266;2023-12-14T07:19:24;11.70;99.90
1447;DHT22;717;51.522;7.266;2023-12-14T07:21:54;11.70;99.90
1447;DHT22;717;51.522;7.266;2023-12-14T07:24:27;11.70;99.90
1447;DHT22;717;51.522;7.266;2023-12-14T07:27:14;11.70;99.90
1447;DHT22;717;51.522;7.266;2023-12-14T07:29:44;11.60;99.90
1447;DHT22;717;51.522;7.266;2023-12-14T07:32:14;11.70;99.90
1447;DHT22;717;51.522;7.266;2023-12-14T07:34:44;11.60;99.90
1447;DHT22;717;51.522;7.266;2023-12-14T07:37:14;11.60;99.90
1447;DHT22;717;51.522;7.266;2023-12-14T07:39:47;11.60;99.90
1447;DHT22;717;51.522;7.266;2023-12-14T07:42:17;11.60;99.90
1447;DHT22;717;51.522;7.266;2023-12-14T07:44:48;11.50;99.90
1447;DHT22;717;51.522;7.266;2023-12-14T07:47:18;11.50;99.90
1447;DHT22;717;51.522;7.266;2023-12-14T07:49:48;11.50;99.90
1447;DHT22;717;51.522;7.266;2023-12-14T07:52:18;11.50;99.90
1447;DHT22;717;51.522;7.266;2023-12-14T07:54:50;11.50;99.90
1447;DHT22;717;51.522;7.266;2023-12-14T07:57:20;11.50;99.90
1447;DHT22;717;51.522;7.266;2023-12-14T07:59:50;11.50;99.90
1447;DHT22;717;51.522;7.266;2023-12-14T08:02:20;11.40;99.90
1447;DHT22;717;51.522;7.266;2023-12-14T08:04:50;11.40;99.90
1447;DHT22;717;51.522;7.266;2023-12-14T08:07:20;11.40;99.90
1447;DHT22;717;51.522;7.266;2023-12-14T08:09:58;11.50;99.90
1447;DHT22;717;51.522;7.266;2023-12-14T08:12:28;11.40;99.90
1447;DHT22;717;51.522;7.266;2023-12-14T08:14:59;11.40;99.90
1447;DHT22;717;51.522;7.266;2023-12-14T08:17:29;11.40;99.90
1447;DHT22;717;51.522;7.266;2023-12-14T08:19:59;11.40;99.90
1447;DHT22;717;51.522;7.266;2023-12-14T08:22:31;11.40;99.90
1447;DHT22;717;51.522;7.266;2023-12-14T08:25:05;11.50;99.90
1447;DHT22;717;51.522;7.266;2023-12-14T08:27:32;11.50;99.90
1447;DHT22;717;51.522;7.266;2023-12-14T08:30:02;11.60;99.90
1447;DHT22;717;51.522;7.266;2023-12-14T08:32:32;11.60;99.90
1447;DHT22;717;51.522;7.266;2023-12-14T08:35:04;11.60;99.90
1447;DHT22;717;51.522;7.266;2023-12-14T08:37:35;11.60;99.90
1447;DHT22;717;51.522;7.266;2023-12-14T08:40:09;11.60;99.90
1447;DHT22;717;51.522;7.266;2023-12-14T08:42:39;11.70;99.90
1447;DHT22;717;51.522;7.266;2023-12-14T08:45:10;11.70;99.90
1447;DHT22;717;51.522;7.266;2023-12-14T08:47:41;11.70;99.90
1447;DHT22;717;51.522;7.266;2023-12-14T08:50:11;11.70;99.90
1447;DHT22;717;51.522;7.266;2023-12-14T08:52:41;11.70;99.90
1447;DHT22;717;51.522;7.266;2023-12-14T08:55:14;11.70;99.90
1447;DHT22;717;51.522;7.266;2023-12-14T08:57:43;11.70;99.90
1447;DHT22;717;51.522;7.266;2023-12-14T09:00:14;11.70;99.90
1447;DHT22;717;51.522;7.266;2023-12-14T09:02:45;11.70;99.90
1447;DHT22;717;51.522;7.266;2023-12-14T09:05:15;11.70;99.90
1447;DHT22;717;51.522;7.266;2023-12-14T09:07:48;11.70;99.90
1447;DHT22;717;51.522;7.266;2023-12-14T09:10:24;11.80;99.90
1447;DHT22;717;51.522;7.266;2023-12-14T09:12:55;11.70;99.90
1447;DHT22;717;51.522;7.266;2023-12-14T09:15:24;11.70;99.90
1447;DHT22;717;51.522;7.266;2023-12-14T09:17:54;11.70;99.90
1447;DHT22;717;51.522;7.266;2023-12-14T09:20:25;11.70;99.90
1447;DHT22;717;51.522;7.266;2023-12-14T09:22:55;11.70;99.90
1447;DHT22;717;51.522;7.266;2023-12-14T09:25:27;11.70;99.90
1447;DHT22;717;51.522;7.266;2023-12-14T09:27:57;11.60;99.90
1447;DHT22;717;51.522;7.266;2023-12-14T09:30:27;11.60;99.90
1447;DHT22;717;51.522;7.266;2023-12-14T09:32:58;11.60;99.90
1447;DHT22;717;51.522;7.266;2023-12-14T09:35:28;11.60;99.90
1447;DHT22;717;51.522;7.266;2023-12-14T09:37:58;11.60;99.90
1447;DHT22;717;51.522;7.266;2023-12-14T09:40:30;11.50;99.90
1447;DHT22;717;51.522;7.266;2023-12-14T09:43:01;11.50;99.90
1447;DHT22;717;51.522;7.266;2023-12-14T09:45:35;11.60;99.90
1447;DHT22;717;51.522;7.266;2023-12-14T09:48:10;11.60;99.90
1447;DHT22;717;51.522;7.266;2023-12-14T09:50:40;11.60;99.90
1447;DHT22;717;51.522;7.266;2023-12-14T09:53:11;11.60;99.90
1447;DHT22;717;51.522;7.266;2023-12-14T09:55:43;11.60;99.90
1447;DHT22;717;51.522;7.266;2023-12-14T09:58:13;11.60;99.90
1447;DHT22;717;51.522;7.266;2023-12-14T10:00:43;11.60;99.90
1447;DHT22;717;51.522;7.266;2023-12-14T10:03:24;11.70;99.90
1447;DHT22;717;51.522;7.266;2023-12-14T10:05:56;11.70;99.90
1447;DHT22;717;51.522;7.266;2023-12-14T10:08:29;11.70;99.90
1447;DHT22;717;51.522;7.266;2023-12-14T10:11:02;11.70;99.90
1447;DHT22;717;51.522;7.266;2023-12-14T10:13:38;11.80;99.90
1447;DHT22;717;51.522;7.266;2023-12-14T10:16:09;11.80;99.90
1447;DHT22;717;51.522;7.266;2023-12-14T10:18:39;11.80;99.90
1447;DHT22;717;51.522;7.266;2023-12-14T10:21:09;11.80;99.90
1447;DHT22;717;51.522;7.266;2023-12-14T10:23:39;11.80;99.90
1447;DHT22;717;51.522;7.266;2023-12-14T10:26:11;11.80;99.90
1447;DHT22;717;51.522;7.266;2023-12-14T10:28:42;11.80;99.90
1447;DHT22;717;51.522;7.266;2023-12-14T10:31:12;11.80;99.90
1447;DHT22;717;51.522;7.266;2023-12-14T10:33:42;11.80;99.90
1447;DHT22;717;51.522;7.266;2023-12-14T10:36:13;11.90;99.90
1447;DHT22;717;51.522;7.266;2023-12-14T10:38:47;11.80;99.90
1447;DHT22;717;51.522;7.266;2023-12-14T10:41:21;11.90;99.90
1447;DHT22;717;51.522;7.266;2023-12-14T10:43:54;11.80;99.90
1447;DHT22;717;51.522;7.266;2023-12-14T10:46:47;11.80;99.90
1447;DHT22;717;51.522;7.266;2023-12-14T10:49:18;11.90;99.90
1447;DHT22;717;51.522;7.266;2023-12-14T10:51:48;11.80;99.90
1447;DHT22;717;51.522;7.266;2023-12-14T10:54:19;11.80;99.90
1447;DHT22;717;51.522;7.266;2023-12-14T10:56:54;11.80;99.90
1447;DHT22;717;51.522;7.266;2023-12-14T10:59:25;11.70;99.90
1447;DHT22;717;51.522;7.266;2023-12-14T11:01:55;11.80;99.90
1447;DHT22;717;51.522;7.266;2023-12-14T11:04:26;11.70;99.90
1447;DHT22;717;51.522;7.266;2023-12-14T11:06:57;11.80;99.90
1447;DHT22;717;51.522;7.266;2023-12-14T11:09:27;11.70;99.90
1447;DHT22;717;51.522;7.266;2023-12-14T11:12:00;11.70;99.90
1447;DHT22;717;51.522;7.266;2023-12-14T11:14:31;11.70;99.90
1447;DHT22;717;51.522;7.266;2023-12-14T11:17:06;11.70;99.90
1447;DHT22;717;51.522;7.266;2023-12-14T11:19:36;11.70;99.90
1447;DHT22;717;51.522;7.266;2023-12-14T11:22:13;11.70;99.90
1447;DHT22;717;51.522;7.266;2023-12-14T11:24:54;11.80;99.90
1447;DHT22;717;51.522;7.266;2023-12-14T11:27:30;11.80;99.90
1447;DHT22;717;51.522;7.266;2023-12-14T11:30:02;11.80;99.90
1447;DHT22;717;51.522;7.266;2023-12-14T11:32:33;11.80;99.90
1447;DHT22;717;51.522;7.266;2023-12-14T11:35:05;11.80;99.90
1447;DHT22;717;51.522;7.266;2023-12-14T11:37:35;11.80;99.90
1447;DHT22;717;51.522;7.266;2023-12-14T11:40:08;11.80;99.90
1447;DHT22;717;51.522;7.266;2023-12-14T11:42:40;11.80;99.90
1447;DHT22;717;51.522;7.266;2023-12-14T11:45:13;11.80;99.90
1447;DHT22;717;51.522;7.266;2023-12-14T11:47:44;11.80;99.90
1447;DHT22;717;51.522;7.266;2023-12-14T11:50:14;11.80;99.90
1447;DHT22;717;51.522;7.266;2023-12-14T11:52:45;11.80;99.90
1447;DHT22;717;51.522;7.266;2023-12-14T11:55:15;11.90;99.90
1447;DHT22;717;51.522;7.266;2023-12-14T11:57:49;11.80;99.90
1447;DHT22;717;51.522;7.266;2023-12-14T12:00:23;11.80;99.90
1447;DHT22;717;51.522;7.266;2023-12-14T12:03:07;11.80;99.90
1447;DHT22;717;51.522;7.266;2023-12-14T12:05:38;11.70;99.90
1447;DHT22;717;51.522;7.266;2023-12-14T12:08:10;11.70;99.90
1447;DHT22;717;51.522;7.266;2023-12-14T12:10:41;11.60;99.90
1447;DHT22;717;51.522;7.266;2023-12-14T12:13:15;11.60;99.90
1447;DHT22;717;51.522;7.266;2023-12-14T12:15:46;11.60;99.90
1447;DHT22;717;51.522;7.266;2023-12-14T12:18:16;11.60;99.90
1447;DHT22;717;51.522;7.266;2023-12-14T12:20:47;11.60;99.90
1447;DHT22;717;51.522;7.266;2023-12-14T12:23:17;11.50;99.90
1447;DHT22;717;51.522;7.266;2023-12-14T12:25:47;11.50;99.90
1447;DHT22;717;51.522;7.266;2023-12-14T12:28:19;11.50;99.90
1447;DHT22;717;51.522;7.266;2023-12-14T12:30:49;11.50;99.90
1447;DHT22;717;51.522;7.266;2023-12-14T12:33:19;11.50;99.90
1447;DHT22;717;51.522;7.266;2023-12-14T12:35:50;11.50;99.90
1447;DHT22;717;51.522;7.266;2023-12-14T12:38:20;11.50;99.90
1447;DHT22;717;51.522;7.266;2023-12-14T12:40:50;11.50;99.90
1447;DHT22;717;51.522;7.266;2023-12-14T12:43:25;11.50;99.90
1447;DHT22;717;51.522;7.266;2023-12-14T12:45:56;11.50;99.90
1447;DHT22;717;51.522;7.266;2023-12-14T12:48:29;11.50;99.90
1447;DHT22;717;51.522;7.266;2023-12-14T12:50:59;11.40;99.90
1447;DHT22;717;51.522;7.266;2023-12-14T12:53:29;11.40;99.90
1447;DHT22;717;51.522;7.266;2023-12-14T12:56:00;11.40;99.90
1447;DHT22;717;51.522;7.266;2023-12-14T12:58:33;11.40;99.90
1447;DHT22;717;51.522;7.266;2023-12-14T13:01:02;11.40;99.90
1447;DHT22;717;51.522;7.266;2023-12-14T13:03:32;11.40;99.90
1447;DHT22;717;51.522;7.266;2023-12-14T13:06:03;11.50;99.90
1447;DHT22;717;51.522;7.266;2023-12-14T13:08:33;11.50;99.90
1447;DHT22;717;51.522;7.266;2023-12-14T13:11:03;11.50;99.90
1447;DHT22;717;51.522;7.266;2023-12-14T13:13:36;11.50;99.90
1447;DHT22;717;51.522;7.266;2023-12-14T13:16:07;11.50;99.90
1447;DHT22;717;51.522;7.266;2023-12-14T13:18:37;11.50;99.90
1447;DHT22;717;51.522;7.266;2023-12-14T13:21:07;11.50;99.90
1447;DHT22;717;51.522;7.266;2023-12-14T13:23:37;11.50;99.90
1447;DHT22;717;51.522;7.266;2023-12-14T13:26:07;11.40;99.90
1447;DHT22;717;51.522;7.266;2023-12-14T13:28:40;11.40;99.90
1447;DHT22;717;51.522;7.266;2023-12-14T13:31:10;11.40;99.90
1447;DHT22;717;51.522;7.266;2023-12-14T13:33:40;11.30;99.90
1447;DHT22;717;51.522;7.266;2023-12-14T13:36:10;11.30;99.90
1447;DHT22;717;51.522;7.266;2023-12-14T13:38:41;11.20;99.90
1447;DHT22;717;51.522;7.266;2023-12-14T13:41:11;11.20;99.90
1447;DHT22;717;51.522;7.266;2023-12-14T13:43:44;11.20;99.90
1447;DHT22;717;51.522;7.266;2023-12-14T13:46:14;11.20;99.90
1447;DHT22;717;51.522;7.266;2023-12-14T13:48:48;11.20;99.90
1447;DHT22;717;51.522;7.266;2023-12-14T13:51:20;11.20;99.90
1447;DHT22;717;51.522;7.266;2023-12-14T13:53:50;11.20;99.90
1447;DHT22;717;51.522;7.266;2023-12-14T13:56:20;11.20;99.90
1447;DHT22;717;51.522;7.266;2023-12-14T13:58:52;11.20;99.90
1447;DHT22;717;51.522;7.266;2023-12-14T14:01:22;11.20;99.90
1447;DHT22;717;51.522;7.266;2023-12-14T14:03:52;11.30;99.90
1447;DHT22;717;51.522;7.266;2023-12-14T14:06:22;11.30;99.90
1447;DHT22;717;51.522;7.266;2023-12-14T14:08:52;11.20;99.90
1447;DHT22;717;51.522;7.266;2023-12-14T14:11:23;11.30;99.90
1447;DHT22;717;51.522;7.266;2023-12-14T14:13:55;11.30;99.90
1447;DHT22;717;51.522;7.266;2023-12-14T14:16:25;11.30;99.90
1447;DHT22;717;51.522;7.266;2023-12-14T14:18:55;11.30;99.90
1447;DHT22;717;51.522;7.266;2023-12-14T14:21:25;11.30;99.90
1447;DHT22;717;51.522;7.266;2023-12-14T14:23:56;11.30;99.90
1447;DHT22;717;51.522;7.266;2023-12-14T14:26:25;11.30;99.90
1447;DHT22;717;51.522;7.266;2023-12-14T14:28:58;11.40;99.90
1447;DHT22;717;51.522;7.266;2023-12-14T14:31:29;11.30;99.90
1447;DHT22;717;51.522;7.266;2023-12-14T14:34:00;11.30;99.90
1447;DHT22;717;51.522;7.266;2023-12-14T14:36:32;11.30;99.90
1447;DHT22;717;51.522;7.266;2023-12-14T14:39:02;11.30;99.90
1447;DHT22;717;51.522;7.266;2023-12-14T14:41:33;11.20;99.90
1447;DHT22;717;51.522;7.266;2023-12-14T14:44:05;11.20;99.90
1447;DHT22;717;51.522;7.266;2023-12-14T14:46:35;11.20;99.90
1447;DHT22;717;51.522;7.266;2023-12-14T14:49:05;11.20;99.90
1447;DHT22;717;51.522;7.266;2023-12-14T14:51:35;11.20;99.90
1447;DHT22;717;51.522;7.266;2023-12-14T14:54:05;11.20;99.90
1447;DHT22;717;51.522;7.266;2023-12-14T14:56:35;11.20;99.90
1447;DHT22;717;51.522;7.266;2023-12-14T14:59:08;11.20;99.90
1447;DHT22;717;51.522;7.266;2023-12-14T15:01:38;11.20;99.90
1447;DHT22;717;51.522;7.266;2023-12-14T15:04:08;11.10;99.90
1447;DHT22;717;51.522;7.266;2023-12-14T15:06:38;11.20;99.90
1447;DHT22;717;51.522;7.266;2023-12-14T15:09:08;11.20;99.90
1447;DHT22;717;51.522;7.266;2023-12-14T15:11:39;11.20;99.90
1447;DHT22;717;51.522;7.266;2023-12-14T15:14:12;11.20;99.90
1447;DHT22;717;51.522;7.266;2023-12-14T15:16:42;11.20;99.90
1447;DHT22;717;51.522;7.266;2023-12-14T15:19:12;11.20;99.90
1447;DHT22;717;51.522;7.266;2023-12-14T15:21:42;11.10;99.90
1447;DHT22;717;51.522;7.266;2023-12-14T15:24:12;11.10;99.90
1447;DHT22;717;51.522;7.266;2023-12-14T15:26:42;11.10;99.90
1447;DHT22;717;51.522;7.266;2023-12-14T15:29:14;11.00;99.90
1447;DHT22;717;51.522;7.266;2023-12-14T15:31:45;10.90;99.90
1447;DHT22;717;51.522;7.266;2023-12-14T15:34:16;10.90;99.90
1447;DHT22;717;51.522;7.266;2023-12-14T15:36:46;10.90;99.90
1447;DHT22;717;51.522;7.266;2023-12-14T15:39:16;10.90;99.90
1447;DHT22;717;51.522;7.266;2023-12-14T15:41:46;10.80;99.90
1447;DHT22;717;51.522;7.266;2023-12-14T15:44:18;10.80;99.90
1447;DHT22;717;51.522;7.266;2023-12-14T15:46:48;10.90;99.90
1447;DHT22;717;51.522;7.266;2023-12-14T15:49:19;10.90;99.90
1447;DHT22;717;51.522;7.266;2023-12-14T15:51:49;10.90;99.90
1447;DHT22;717;51.522;7.266;2023-12-14T15:54:18;10.90;99.90
1447;DHT22;717;51.522;7.266;2023-12-14T15:56:48;10.90;99.90
1447;DHT22;717;51.522;7.266;2023-12-14T15:59:21;10.90;99.90
1447;DHT22;717;51.522;7.266;2023-12-14T16:01:51;10.90;99.90
1447;DHT22;717;51.522;7.266;2023-12-14T16:04:21;10.90;99.90
1447;DHT22;717;51.522;7.266;2023-12-14T16:06:51;10.90;99.90
1447;DHT22;717;51.522;7.266;2023-12-14T16:09:21;10.90;99.90
1447;DHT22;717;51.522;7.266;2023-12-14T16:11:50;10.90;99.90
1447;DHT22;717;51.522;7.266;2023-12-14T16:14:23;10.90;99.90
1447;DHT22;717;51.522;7.266;2023-12-14T16:16:53;10.90;99.90
1447;DHT22;717;51.522;7.266;2023-12-14T16:19:23;10.90;99.90
1447;DHT22;717;51.522;7.266;2023-12-14T16:21:53;10.90;99.90
1447;DHT22;717;51.522;7.266;2023-12-14T16:24:23;10.90;99.90
1447;DHT22;717;51.522;7.266;2023-12-14T16:26:53;10.90;99.90
1447;DHT22;717;51.522;7.266;2023-12-14T16:29:28;10.90;99.90
1447;DHT22;717;51.522;7.266;2023-12-14T16:31:59;11.00;99.90
1447;DHT22;717;51.522;7.266;2023-12-14T16:34:29;11.00;99.90
1447;DHT22;717;51.522;7.266;2023-12-14T16:37:00;11.00;99.90
1447;DHT22;717;51.522;7.266;2023-12-14T16:39:30;11.00;99.90
1447;DHT22;717;51.522;7.266;2023-12-14T16:42:01;11.00;99.90